createdAt,value
2017-11-20T00:02:22.095Z,84.83
2017-11-20T00:04:49.748Z,85.50
2017-11-20T00:07:17.389Z,86.20
2017-11-20T00:09:44.984Z,86.59
2017-11-20T00:12:12.591Z,87.16
2017-11-20T00:14:40.239Z,87.69
2017-11-20T00:17:07.868Z,87.16
2017-11-20T00:19:35.528Z,87.22
2017-11-20T00:22:03.240Z,87.72
2017-11-20T00:24:30.836Z,87.50
2017-11-20T00:26:58.500Z,88.11
2017-11-20T00:29:26.136Z,88.02
2017-11-20T00:31:53.745Z,87.85
2017-11-20T00:34:21.346Z,87.18
2017-11-20T00:36:49.052Z,87.49
2017-11-20T00:39:16.648Z,87.18
2017-11-20T00:41:44.308Z,88.04
2017-11-20T00:44:11.968Z,87.49
2017-11-20T00:46:39.564Z,87.84
2017-11-20T00:49:07.232Z,87.74
2017-11-20T00:51:34.965Z,88.11
2017-11-20T00:54:02.572Z,88.22
2017-11-20T00:56:30.241Z,88.36
2017-11-20T00:58:57.880Z,88.49
2017-11-20T01:01:25.551Z,88.44
2017-11-20T01:03:53.178Z,88.53
2017-11-20T01:06:20.831Z,89.23
2017-11-20T01:08:48.424Z,88.76
2017-11-20T01:11:16.025Z,89.49
2017-11-20T01:13:43.707Z,89.20
2017-11-20T01:16:11.308Z,89.62
2017-11-20T01:18:38.964Z,89.42
2017-11-20T01:21:06.645Z,89.40
2017-11-20T01:23:34.298Z,89.08
2017-11-20T01:26:01.957Z,89.21
2017-11-20T01:28:29.633Z,89.52
2017-11-20T01:30:57.236Z,89.22
2017-11-20T01:33:24.829Z,89.51
2017-11-20T01:35:52.473Z,88.58
2017-11-20T01:38:20.140Z,88.47
2017-11-20T01:40:47.835Z,87.30
2017-11-20T01:43:15.475Z,87.43
2017-11-20T01:45:43.073Z,87.57
2017-11-20T01:48:10.676Z,87.37
2017-11-20T01:50:38.377Z,87.90
2017-11-20T01:53:05.981Z,87.23
2017-11-20T01:55:33.577Z,87.62
2017-11-20T01:58:01.217Z,87.91
2017-11-20T02:00:28.825Z,88.08
2017-11-20T02:03:01.296Z,88.07
2017-11-20T02:05:28.940Z,88.16
2017-11-20T02:07:56.555Z,87.83
2017-11-20T02:10:24.207Z,87.74
2017-11-20T02:12:51.865Z,87.83
2017-11-20T02:15:19.473Z,88.07
2017-11-20T02:17:47.074Z,88.87
2017-11-20T02:20:14.820Z,88.25
2017-11-20T02:22:42.463Z,87.97
2017-11-20T02:25:10.084Z,88.07
2017-11-20T02:27:37.758Z,88.03
2017-11-20T02:30:05.350Z,88.15
2017-11-20T02:32:32.956Z,88.60
2017-11-20T02:35:00.662Z,88.53
2017-11-20T02:37:28.268Z,88.26
2017-11-20T02:39:55.934Z,88.27
2017-11-20T02:42:23.689Z,88.28
2017-11-20T02:44:51.297Z,88.80
2017-11-20T02:47:18.914Z,88.04
2017-11-20T02:49:46.587Z,88.41
2017-11-20T02:52:14.253Z,88.24
2017-11-20T02:54:41.968Z,88.49
2017-11-20T02:57:09.632Z,87.76
2017-11-20T02:59:37.288Z,87.83
2017-11-20T03:02:04.996Z,87.58
2017-11-20T03:04:32.643Z,88.15
2017-11-20T03:07:00.296Z,87.58
2017-11-20T03:09:27.895Z,87.81
2017-11-20T03:11:55.558Z,87.96
2017-11-20T03:14:23.163Z,88.26
2017-11-20T03:16:50.823Z,88.21
2017-11-20T03:19:18.477Z,88.66
2017-11-20T03:21:46.100Z,88.66
2017-11-20T03:24:13.696Z,88.88
2017-11-20T03:26:41.404Z,88.88
2017-11-20T03:29:09.015Z,89.13
2017-11-20T03:31:36.616Z,89.28
2017-11-20T03:34:04.328Z,88.69
2017-11-20T03:36:31.990Z,88.70
2017-11-20T03:38:59.603Z,88.80
2017-11-20T03:41:27.257Z,89.09
2017-11-20T03:43:54.920Z,88.95
2017-11-20T03:46:22.513Z,88.97
2017-11-20T03:48:50.168Z,88.72
2017-11-20T03:51:17.768Z,88.84
2017-11-20T03:53:45.420Z,89.15
2017-11-20T03:56:13.073Z,89.65
2017-11-20T03:58:40.721Z,89.46
2017-11-20T04:01:08.321Z,89.68
2017-11-20T04:03:36.020Z,89.18
2017-11-20T04:06:03.684Z,88.80
2017-11-20T04:08:31.292Z,88.55
2017-11-20T04:10:58.949Z,88.61
2017-11-20T04:13:26.547Z,88.76
2017-11-20T04:15:54.140Z,88.44
2017-11-20T04:18:21.784Z,88.28
2017-11-20T04:20:49.493Z,88.28
2017-11-20T04:23:17.145Z,88.13
2017-11-20T04:25:44.802Z,88.58
2017-11-20T04:28:12.396Z,88.27
2017-11-20T04:30:40.078Z,88.40
2017-11-20T04:33:07.787Z,88.80
2017-11-20T04:35:35.460Z,89.42
2017-11-20T04:38:03.061Z,89.41
2017-11-20T04:40:30.773Z,89.83
2017-11-20T04:42:58.374Z,89.50
2017-11-20T04:45:25.970Z,89.37
2017-11-20T04:47:53.692Z,88.75
2017-11-20T04:50:21.363Z,88.64
2017-11-20T04:52:49.028Z,89.37
2017-11-20T04:55:16.680Z,89.81
2017-11-20T04:57:44.284Z,89.89
2017-11-20T05:00:11.892Z,89.78
2017-11-20T05:02:39.591Z,89.62
2017-11-20T05:05:07.199Z,89.92
2017-11-20T05:07:34.812Z,89.58
2017-11-20T05:10:02.482Z,89.14
2017-11-20T05:12:30.087Z,89.57
2017-11-20T05:14:57.691Z,89.50
2017-11-20T05:17:25.358Z,89.20
2017-11-20T05:19:52.960Z,89.22
2017-11-20T05:22:20.631Z,88.88
2017-11-20T05:24:48.344Z,88.45
2017-11-20T05:27:15.952Z,88.80
2017-11-20T05:29:43.623Z,89.10
2017-11-20T05:32:11.288Z,89.63
2017-11-20T05:34:38.889Z,90.01
2017-11-20T05:37:06.490Z,90.42
2017-11-20T05:39:34.153Z,90.49
2017-11-20T05:42:01.763Z,90.39
2017-11-20T05:44:29.365Z,90.43
2017-11-20T05:46:57.037Z,90.63
2017-11-20T05:49:24.704Z,90.58
2017-11-20T05:51:52.304Z,90.09
2017-11-20T05:54:20.017Z,90.27
2017-11-20T05:56:47.705Z,90.46
2017-11-20T05:59:15.309Z,90.67
2017-11-20T06:01:42.973Z,90.68
2017-11-20T06:04:10.636Z,90.82
2017-11-20T06:06:38.312Z,90.98
2017-11-20T06:09:05.956Z,91.15
2017-11-20T06:11:33.581Z,91.19
2017-11-20T06:14:01.242Z,91.02
2017-11-20T06:16:28.962Z,90.81
2017-11-20T06:18:56.569Z,90.80
2017-11-20T06:21:25.056Z,90.58
2017-11-20T06:23:52.710Z,90.69
2017-11-20T06:26:20.312Z,90.46
2017-11-20T06:28:47.922Z,90.72
2017-11-20T06:31:15.638Z,91.02
2017-11-20T06:33:43.314Z,90.86
2017-11-20T06:36:10.915Z,90.70
2017-11-20T06:38:38.556Z,90.47
2017-11-20T06:41:06.153Z,90.39
2017-11-20T06:43:33.812Z,90.70
2017-11-20T06:46:01.457Z,90.71
2017-11-20T06:48:29.122Z,90.70
2017-11-20T06:50:56.723Z,90.50
2017-11-20T06:53:24.375Z,90.49
2017-11-20T06:55:52.055Z,90.59
2017-11-20T06:58:19.648Z,90.84
2017-11-20T07:00:47.313Z,90.60
2017-11-20T07:03:14.968Z,90.39
2017-11-20T07:05:42.568Z,90.16
2017-11-20T07:08:10.216Z,89.94
2017-11-20T07:10:37.872Z,90.19
2017-11-20T07:13:05.476Z,90.13
2017-11-20T07:15:33.123Z,89.91
2017-11-20T07:18:00.725Z,89.48
2017-11-20T07:20:28.436Z,89.57
2017-11-20T07:22:56.082Z,89.49
2017-11-20T07:25:35.564Z,89.20
2017-11-20T07:28:03.218Z,89.10
2017-11-20T07:33:55.029Z,88.56
2017-11-20T07:36:34.420Z,88.55
2017-11-20T07:39:13.913Z,88.54
2017-11-20T07:41:52.447Z,88.94
2017-11-20T07:44:20.141Z,89.08
2017-11-20T07:46:47.747Z,88.86
2017-11-20T07:49:15.410Z,88.32
2017-11-20T07:51:43.132Z,88.25
2017-11-20T07:54:10.731Z,88.32
2017-11-20T07:56:38.336Z,88.49
2017-11-20T07:59:06.116Z,88.84
2017-11-20T08:01:33.712Z,88.85
2017-11-20T08:04:01.385Z,89.08
2017-11-20T08:06:29.054Z,89.01
2017-11-20T08:08:57.629Z,88.78
2017-11-20T08:11:25.236Z,88.88
2017-11-20T08:13:52.936Z,88.64
2017-11-20T08:16:20.537Z,88.39
2017-11-20T08:18:48.207Z,88.10
2017-11-20T08:21:15.928Z,88.42
2017-11-20T08:23:43.628Z,88.14
2017-11-20T08:26:11.232Z,88.58
2017-11-20T08:28:38.980Z,88.47
2017-11-20T08:31:06.584Z,87.99
2017-11-20T08:33:34.267Z,88.13
2017-11-20T08:36:01.965Z,87.82
2017-11-20T08:38:29.572Z,88.58
2017-11-20T08:40:57.225Z,88.76
2017-11-20T08:43:24.941Z,88.47
2017-11-20T08:45:52.619Z,88.04
2017-11-20T08:48:20.297Z,88.41
2017-11-20T08:50:48.021Z,87.40
2017-11-20T08:53:15.681Z,87.54
2017-11-20T08:55:43.291Z,87.76
2017-11-20T08:58:11.016Z,87.16
2017-11-20T09:00:38.632Z,87.36
2017-11-20T09:03:06.233Z,88.04
2017-11-20T09:05:33.963Z,88.38
2017-11-20T09:08:01.576Z,88.43
2017-11-20T09:10:29.181Z,88.30
2017-11-20T09:12:56.856Z,88.31
2017-11-20T09:15:24.452Z,87.84
2017-11-20T09:17:52.068Z,87.59
2017-11-20T09:20:19.718Z,87.98
2017-11-20T09:22:47.379Z,87.53
2017-11-20T09:25:14.975Z,87.63
2017-11-20T09:27:42.678Z,86.61
2017-11-20T09:30:10.287Z,87.24
2017-11-20T09:32:37.880Z,88.02
2017-11-20T09:35:05.533Z,86.68
2017-11-20T09:37:33.180Z,86.62
2017-11-20T09:40:00.783Z,86.30
2017-11-20T09:42:28.596Z,86.19
2017-11-20T09:44:56.234Z,86.43
2017-11-20T09:47:23.841Z,86.48
2017-11-20T09:49:51.509Z,86.68
2017-11-20T09:52:19.152Z,86.49
2017-11-20T09:54:46.816Z,86.58
2017-11-20T09:57:14.560Z,86.79
2017-11-20T09:59:42.168Z,87.22
2017-11-20T10:02:09.820Z,85.72
2017-11-20T10:04:37.537Z,86.57
2017-11-20T10:07:05.153Z,85.90
2017-11-20T10:09:32.768Z,86.25
2017-11-20T10:12:00.381Z,85.60
2017-11-20T10:14:28.014Z,85.54
2017-11-20T10:16:55.556Z,85.23
2017-11-20T10:19:23.140Z,85.49
2017-11-20T10:21:50.722Z,85.55
2017-11-20T10:24:18.267Z,85.75
2017-11-20T10:26:45.850Z,84.78
2017-11-20T10:29:13.419Z,85.72
2017-11-20T10:31:40.986Z,85.92
2017-11-20T10:34:08.599Z,85.16
2017-11-20T10:36:36.147Z,85.85
2017-11-20T10:39:03.796Z,85.91
2017-11-20T10:41:31.401Z,85.15
2017-11-20T10:43:59.028Z,84.58
2017-11-20T10:46:26.602Z,85.27
2017-11-20T10:48:54.216Z,84.54
2017-11-20T10:51:21.783Z,84.51
2017-11-20T10:53:49.359Z,84.65
2017-11-20T10:56:16.948Z,85.32
2017-11-20T10:58:44.525Z,84.88
2017-11-20T11:01:12.066Z,85.32
2017-11-20T11:03:39.719Z,85.94
2017-11-20T11:06:07.276Z,86.71
2017-11-20T11:08:34.828Z,86.36
2017-11-20T11:11:02.452Z,86.66
2017-11-20T11:13:30.020Z,87.87
2017-11-20T11:15:57.589Z,87.59
2017-11-20T11:18:25.190Z,87.20
2017-11-20T11:20:52.752Z,87.84
2017-11-20T11:23:20.395Z,87.71
2017-11-20T11:25:47.991Z,87.45
2017-11-20T11:28:15.531Z,87.21
2017-11-20T11:30:43.092Z,87.58
2017-11-20T11:33:10.687Z,87.13
2017-11-20T11:35:38.243Z,86.52
2017-11-20T11:38:05.803Z,87.01
2017-11-20T11:40:33.404Z,86.90
2017-11-20T11:43:01.083Z,86.70
2017-11-20T11:45:28.672Z,86.80
2017-11-20T11:47:56.277Z,86.64
2017-11-20T11:50:23.834Z,85.69
2017-11-20T11:52:51.416Z,85.04
2017-11-20T11:55:19.011Z,84.31
2017-11-20T11:57:46.577Z,83.60
2017-11-20T12:00:14.227Z,83.54
2017-11-20T12:02:41.825Z,83.57
2017-11-20T12:05:09.384Z,83.53
2017-11-20T12:07:36.930Z,82.95
2017-11-20T12:10:04.547Z,82.70
2017-11-20T12:12:32.104Z,82.90
2017-11-20T12:14:59.667Z,82.95
2017-11-20T12:17:27.272Z,83.10
2017-11-20T12:19:54.816Z,83.15
2017-11-20T12:22:22.422Z,83.16
2017-11-20T12:24:50.107Z,83.34
2017-11-20T12:27:17.656Z,82.80
2017-11-20T12:29:45.211Z,83.04
2017-11-20T12:32:12.870Z,82.90
2017-11-20T12:34:40.436Z,83.28
2017-11-20T12:37:07.976Z,82.80
2017-11-20T12:39:35.552Z,82.40
2017-11-20T12:42:03.105Z,81.95
2017-11-20T12:44:30.667Z,82.86
2017-11-20T12:46:58.254Z,82.58
2017-11-20T12:49:25.816Z,82.13
2017-11-20T12:51:53.366Z,82.16
2017-11-20T12:54:20.939Z,82.15
2017-11-20T12:56:48.492Z,82.47
2017-11-20T12:59:16.059Z,82.06
2017-11-20T13:01:43.650Z,82.12
2017-11-20T13:04:11.239Z,82.44
2017-11-20T13:06:39.683Z,81.77
2017-11-20T13:09:07.263Z,81.52
2017-11-20T13:11:34.810Z,81.95
2017-11-20T13:14:02.366Z,81.96
2017-11-20T13:16:29.979Z,82.00
2017-11-20T13:18:57.615Z,81.50
2017-11-20T13:21:25.215Z,80.87
2017-11-20T13:23:52.853Z,81.26
2017-11-20T13:26:20.455Z,81.79
2017-11-20T13:28:48.073Z,81.05
2017-11-20T13:31:15.704Z,79.67
2017-11-20T13:33:43.435Z,79.46
2017-11-20T13:36:11.008Z,79.32
2017-11-20T13:38:38.608Z,79.83
2017-11-20T13:41:06.183Z,80.60
2017-11-20T13:43:33.795Z,79.63
2017-11-20T13:46:01.519Z,79.67
2017-11-20T13:48:29.082Z,80.10
2017-11-20T13:50:56.643Z,78.99
2017-11-20T13:53:24.279Z,79.26
2017-11-20T13:55:51.848Z,79.33
2017-11-20T13:58:19.398Z,78.80
2017-11-20T14:00:46.983Z,79.23
2017-11-20T14:03:14.569Z,78.77
2017-11-20T14:05:42.112Z,78.59
2017-11-20T14:08:09.812Z,79.65
2017-11-20T14:10:37.387Z,79.42
2017-11-20T14:13:05.114Z,80.36
2017-11-20T14:15:32.763Z,78.99
2017-11-20T14:18:00.415Z,80.47
2017-11-20T14:20:27.963Z,80.22
2017-11-20T14:22:55.551Z,80.60
2017-11-20T14:25:23.102Z,80.22
2017-11-20T14:27:50.653Z,80.91
2017-11-20T14:30:18.369Z,80.75
2017-11-20T14:32:45.957Z,80.74
2017-11-20T14:35:13.690Z,80.91
2017-11-20T14:37:41.296Z,80.25
2017-11-20T14:40:08.960Z,81.00
2017-11-20T14:42:36.604Z,80.69
2017-11-20T14:45:04.265Z,80.50
2017-11-20T14:47:32.014Z,80.86
2017-11-20T14:49:59.663Z,80.88
2017-11-20T14:52:43.059Z,80.82
2017-11-20T14:55:10.815Z,80.48
2017-11-20T14:57:38.383Z,79.99
2017-11-20T15:00:05.966Z,80.40
2017-11-20T15:02:33.735Z,80.21
2017-11-20T15:05:01.310Z,80.42
2017-11-20T15:07:28.935Z,80.57
2017-11-20T15:09:56.504Z,80.71
2017-11-20T15:12:24.211Z,80.39
2017-11-20T15:14:51.903Z,80.41
2017-11-20T15:17:19.556Z,80.06
2017-11-20T15:19:47.243Z,80.02
2017-11-20T15:22:14.984Z,79.57
2017-11-20T15:24:42.740Z,79.16
2017-11-20T15:27:10.645Z,78.52
2017-11-20T15:29:38.451Z,78.38
2017-11-20T15:32:06.164Z,78.69
2017-11-20T15:34:33.896Z,78.77
2017-11-20T15:37:01.606Z,79.33
2017-11-20T15:39:29.235Z,79.04
2017-11-20T15:41:56.885Z,79.52
2017-11-20T15:44:24.540Z,79.23
2017-11-20T15:46:52.108Z,79.15
2017-11-20T15:49:19.636Z,79.01
2017-11-20T15:51:47.270Z,79.06
2017-11-20T15:54:14.812Z,78.25
2017-11-20T15:56:42.378Z,78.50
2017-11-20T15:59:09.946Z,78.98
2017-11-20T16:01:37.479Z,79.74
2017-11-20T16:04:05.020Z,79.26
2017-11-20T16:06:32.591Z,79.13
2017-11-20T16:09:00.127Z,79.48
2017-11-20T16:11:27.669Z,79.35
2017-11-20T16:13:55.248Z,79.62
2017-11-20T16:16:22.818Z,79.03
2017-11-20T16:18:50.362Z,78.91
2017-11-20T16:21:17.927Z,79.74
2017-11-20T16:23:45.464Z,79.24
2017-11-20T16:26:13.023Z,79.13
2017-11-20T16:28:40.604Z,78.97
2017-11-20T16:31:08.142Z,78.99
2017-11-20T16:33:35.679Z,78.39
2017-11-20T16:36:03.308Z,79.06
2017-11-20T16:38:30.899Z,79.04
2017-11-20T16:40:58.556Z,78.89
2017-11-20T16:43:26.196Z,78.58
2017-11-20T16:45:53.889Z,78.84
2017-11-20T16:48:21.595Z,79.44
2017-11-20T16:50:49.244Z,79.01
2017-11-20T16:53:16.897Z,78.55
2017-11-20T16:55:44.497Z,78.71
2017-11-20T16:58:24.020Z,78.52
2017-11-20T17:00:51.718Z,78.33
2017-11-20T17:03:35.057Z,79.07
2017-11-20T17:06:02.675Z,79.21
2017-11-20T17:08:30.285Z,78.00
2017-11-20T17:10:57.928Z,78.62
2017-11-20T17:13:25.535Z,78.43
2017-11-20T17:15:53.159Z,77.70
2017-11-20T17:18:20.812Z,77.24
2017-11-20T17:20:48.414Z,76.71
2017-11-20T17:23:16.008Z,77.37
2017-11-20T17:25:43.700Z,77.03
2017-11-20T17:28:11.306Z,77.05
2017-11-20T17:30:38.900Z,77.05
2017-11-20T17:33:06.556Z,76.36
2017-11-20T17:35:34.168Z,76.56
2017-11-20T17:38:01.765Z,76.77
2017-11-20T17:40:29.436Z,76.32
2017-11-20T17:42:57.235Z,76.18
2017-11-20T17:45:24.857Z,76.30
2017-11-20T17:47:52.498Z,75.92
2017-11-20T17:50:20.100Z,75.51
2017-11-20T17:52:47.770Z,75.59
2017-11-20T17:55:15.417Z,76.34
2017-11-20T17:57:43.011Z,76.55
2017-11-20T18:00:10.667Z,75.18
2017-11-20T18:02:38.378Z,75.62
2017-11-20T18:05:05.981Z,74.77
2017-11-20T18:07:33.584Z,73.96
2017-11-20T18:10:01.263Z,74.77
2017-11-20T18:12:28.927Z,73.62
2017-11-20T18:14:56.529Z,73.05
2017-11-20T18:17:24.193Z,72.41
2017-11-20T18:19:51.804Z,72.53
2017-11-20T18:22:19.482Z,72.39
2017-11-20T18:24:47.151Z,71.86
2017-11-20T18:27:14.748Z,72.42
2017-11-20T18:29:42.348Z,70.94
2017-11-20T18:32:10.000Z,71.74
2017-11-20T18:34:37.596Z,71.19
2017-11-20T18:37:05.139Z,70.40
2017-11-20T18:39:32.789Z,71.49
2017-11-20T18:42:00.387Z,70.96
2017-11-20T18:44:28.053Z,71.81
2017-11-20T18:46:55.752Z,71.58
2017-11-20T18:49:23.408Z,71.25
2017-11-20T18:51:51.056Z,71.66
2017-11-20T18:54:18.789Z,71.61
2017-11-20T18:56:46.444Z,71.07
2017-11-20T18:59:14.076Z,71.10
2017-11-20T19:04:58.740Z,71.55
2017-11-20T19:07:38.184Z,70.84
2017-11-20T19:10:05.880Z,71.25
2017-11-20T19:12:33.475Z,71.38
2017-11-20T19:15:01.127Z,71.12
2017-11-20T19:17:28.753Z,71.24
2017-11-20T19:19:56.370Z,71.70
2017-11-20T19:22:24.093Z,71.10
2017-11-20T19:24:51.703Z,71.48
2017-11-20T19:27:19.320Z,71.31
2017-11-20T19:29:47.032Z,71.62
2017-11-20T19:32:14.701Z,71.87
2017-11-20T19:34:42.360Z,70.96
2017-11-20T19:37:10.012Z,71.44
2017-11-20T19:39:37.668Z,70.68
2017-11-20T19:42:05.264Z,70.48
2017-11-20T19:44:32.918Z,71.03
2017-11-20T19:47:00.516Z,71.23
2017-11-20T19:49:28.122Z,70.83
2017-11-20T19:51:55.761Z,71.73
2017-11-20T19:54:23.424Z,71.31
2017-11-20T19:56:51.025Z,71.15
2017-11-20T19:59:18.790Z,70.95
2017-11-20T20:01:46.425Z,71.21
2017-11-20T20:04:14.019Z,71.11
2017-11-20T20:06:41.796Z,71.21
2017-11-20T20:09:09.383Z,71.40
2017-11-20T20:11:36.984Z,70.68
2017-11-20T20:14:16.445Z,71.19
2017-11-20T20:16:46.024Z,71.32
2017-11-20T20:19:13.684Z,71.66
2017-11-20T20:21:41.404Z,72.31
2017-11-20T20:24:08.996Z,71.56
2017-11-20T20:26:36.596Z,71.49
2017-11-20T20:29:04.275Z,71.71
2017-11-20T20:31:31.941Z,71.69
2017-11-20T20:33:59.549Z,72.06
2017-11-20T20:36:27.250Z,72.73
2017-11-20T20:38:54.845Z,71.86
2017-11-20T20:41:22.435Z,72.46
2017-11-20T20:43:50.072Z,72.25
2017-11-20T20:46:17.731Z,72.32
2017-11-20T20:48:45.324Z,72.21
2017-11-20T20:51:13.023Z,72.42
2017-11-20T20:53:40.676Z,72.00
2017-11-20T20:56:08.275Z,72.48
2017-11-20T20:58:35.971Z,72.30
2017-11-20T21:01:03.564Z,72.50
2017-11-20T21:03:31.160Z,72.75
2017-11-20T21:05:58.809Z,72.91
2017-11-20T21:08:26.419Z,72.15
2017-11-20T21:10:59.685Z,72.44
2017-11-20T21:13:27.291Z,72.32
2017-11-20T21:15:54.890Z,72.72
2017-11-20T21:18:22.524Z,72.79
2017-11-20T21:20:50.190Z,72.25
2017-11-20T21:23:17.795Z,72.40
2017-11-20T21:25:45.437Z,71.83
2017-11-20T21:28:13.108Z,71.72
2017-11-20T21:30:40.704Z,71.59
2017-11-20T21:33:08.360Z,72.06
2017-11-20T21:35:35.961Z,71.54
2017-11-20T21:38:03.621Z,71.62
2017-11-20T21:40:31.336Z,71.43
2017-11-20T21:42:58.940Z,72.19
2017-11-20T21:45:26.605Z,72.35
2017-11-20T21:47:54.320Z,72.02
2017-11-20T21:50:21.912Z,72.53
2017-11-20T21:52:49.527Z,73.15
2017-11-20T21:55:17.195Z,72.70
2017-11-20T21:57:44.856Z,72.04
2017-11-20T22:00:12.458Z,72.42
2017-11-20T22:02:40.105Z,72.08
2017-11-20T22:05:07.712Z,72.10
2017-11-20T22:07:35.384Z,72.24
2017-11-20T22:10:03.033Z,72.79
2017-11-20T22:12:42.609Z,73.20
2017-11-20T22:15:10.365Z,72.77
2017-11-20T22:17:37.970Z,72.54
2017-11-20T22:20:05.565Z,72.41
2017-11-20T22:22:33.285Z,72.02
2017-11-20T22:25:00.872Z,72.16
2017-11-20T22:27:28.531Z,72.01
2017-11-20T22:29:56.250Z,72.31
2017-11-20T22:32:23.859Z,71.84
2017-11-20T22:34:51.448Z,72.24
2017-11-20T22:37:19.095Z,71.66
2017-11-20T22:39:46.753Z,72.34
2017-11-20T22:42:14.349Z,71.90
2017-11-20T22:44:42.023Z,71.57
2017-11-20T22:47:09.625Z,72.46
2017-11-20T22:49:37.223Z,71.99
2017-11-20T22:52:04.936Z,72.41
2017-11-20T22:54:32.590Z,71.47
2017-11-20T22:57:00.185Z,72.01
2017-11-20T22:59:27.823Z,71.95
2017-11-20T23:01:55.420Z,72.37
2017-11-20T23:04:23.009Z,72.34
2017-11-20T23:06:50.672Z,72.77
2017-11-20T23:09:18.264Z,72.26
2017-11-20T23:11:45.934Z,72.49
2017-11-20T23:14:13.674Z,73.01
2017-11-20T23:16:41.279Z,73.37
2017-11-20T23:19:08.928Z,73.28
2017-11-20T23:21:36.625Z,72.53
2017-11-20T23:24:04.275Z,73.20
2017-11-20T23:26:31.929Z,73.15
2017-11-20T23:28:59.597Z,72.97
2017-11-20T23:31:27.244Z,72.77
2017-11-20T23:33:54.840Z,72.66
2017-11-20T23:36:22.481Z,73.17
2017-11-20T23:38:50.132Z,72.59
2017-11-20T23:41:17.723Z,72.32
2017-11-20T23:43:45.437Z,72.12
2017-11-20T23:46:13.036Z,72.52
2017-11-20T23:48:40.743Z,72.71
2017-11-20T23:51:08.544Z,72.50
2017-11-20T23:53:36.149Z,73.10
2017-11-20T23:56:03.747Z,72.21
2017-11-20T23:58:31.412Z,72.97
